Weather at Star Smith Field

Public forecast

Using degrees Fahrenheit for public forecast. Weather courtesy of forecast.io.

Closest aviation weather report (METAR) to Star Smith Field

Closest report is Lackland Air Force Base, 7.2 nm (13.3 km) NE.

2024/07/24 21:55 (retrieved 37 minutes ago)

KSKF 242155Z 10010KT 10SM FEW033 BKN200 30/22 A3002 RMK AO2A SLP158 T03000224

Closest aviation forecast (TAF) to Star Smith Field

Closest forecast is Lackland Air Force Base, 7.2 nm (13.3 km) NE.

2024/07/24 18:24 (retrieved 4 hours ago)

TAF KSKF 241800Z 2418/2524 04012KT 9000 -SHRA VCTS SCT025 BKN050CB OVC100 QNH3003INS BECMG 2423/2424 04006KT 9999 NSW FEW050 SCT110 SCT250 QNH3002INS BECMG 2506/2507 05006KT 9999 BKN012 BKN050 QNH3003INS TEMPO 2509/2514 BKN008 BECMG 2515/2516 05006KT 9999 VCSH SCT012 BKN050 QNH3006INS TX31/2422Z TN23/2512Z